Thunderstorms From: 25-05-2018 15:00 Until: 26-05-2018 15:00 warning for: Thunderstorms Level: Yellow info button

Although rather usual in this region, locally or potentially dangerous phenomena are expected. (such as local winds, summer thunderstorms, rising streams or high waves) Be aware and pay attention to the latest weather updates, especially if you carry out activities exposed to weather or close to a stream or shoreline. 


Meteo18 Weather Cam more information Meteo18 Weather Cam


warning for Thunderstorms more information blitzortung!


Rain radar more information rain snow radar


Visit our other weather sites:

Template documentation
and downloads

And another site



Weather Underground History page Text

Daily Summary for August 20, 2016 Units:  Metric    English   Both
« Previous Day
Next Day »
Daily Weekly Monthly Yearly Custom
  High: Low: Average:
Temperature: -17.8 °C -9.6 °C -7.1 °C
Dew Point: -17.8 °C -12.3 °C -10.4 °C
Humidity: Humidity % 44 % 69 %
Wind Speed: 0 km/h 0 km/h 11.4 km/h
Wind Gust: 0 km/h - -
Wind:- - WSW
Pressure: 0 hPa 34269.7 hPa -
Precipitation: 71.12 mm    
Historical Graphs
 
 
Tabular Data for August 20, 2016
Time Temperature Dew Point Pressure Wind Wind Speed Wind Gust Humidity Rainfall Rate (Hourly)
-17.8 °C -17.8 °C 0 hPa Calm     Humidity % 0 mm
00:02 -6.6 °C -9.6 °C 34279.9 hPa Calm     71 % 0 mm
00:12 -6.7 °C -9.7 °C 34269.7 hPa Calm     71 % 0 mm
00:17 -6.7 °C -9.7 °C 34279.9 hPa Calm     71 % 0 mm
00:22 -6.7 °C -9.7 °C 34279.9 hPa Calm     71 % 0 mm
00:27 -6.7 °C -9.7 °C 34279.9 hPa Calm     71 % 0 mm
00:32 -6.7 °C -9.7 °C 34279.9 hPa Calm   7.7 km/h 71 % 0 mm
00:42 -6.7 °C -9.7 °C 34293.4 hPa Calm     71 % 0 mm
00:47 -6.8 °C -9.8 °C 34293.4 hPa Calm     71 % 0 mm
00:52 -6.8 °C -9.8 °C 34293.4 hPa Calm     71 % 0 mm
00:57 -6.8 °C -9.8 °C 34293.4 hPa Calm   7.7 km/h 71 % 0 mm
01:02 -6.8 °C -9.8 °C 34293.4 hPa WNW 2.6 km/h 7.7 km/h 71 % 0 mm
01:07 -6.8 °C -9.8 °C 34293.4 hPa WNW 7.7 km/h 10.3 km/h 71 % 0 mm
01:12 -6.8 °C -9.8 °C 34293.4 hPa NW 5.1 km/h 10.3 km/h 71 % 0 mm
01:17 -6.8 °C -9.8 °C 34293.4 hPa WNW 2.6 km/h 12.9 km/h 71 % 0 mm
01:22 -6.9 °C -9.8 °C 34293.4 hPa West 2.6 km/h 12.9 km/h 72 % 0 mm
01:27 -7 °C -9.8 °C 34293.4 hPa West 2.6 km/h 12.9 km/h 73 % 0 mm
01:32 -7.1 °C -9.8 °C 34293.4 hPa WNW 7.7 km/h 10.3 km/h 73 % 0 mm
01:37 -7.1 °C -9.7 °C 34293.4 hPa WNW 5.1 km/h 10.3 km/h 74 % 0 mm
01:42 -7.1 °C -9.6 °C 34293.4 hPa Calm   10.3 km/h 75 % 0 mm
01:47 -7.1 °C -9.6 °C 34293.4 hPa West 5.1 km/h 10.3 km/h 75 % 0 mm
01:52 -7.1 °C -9.6 °C 34293.4 hPa Calm   10.3 km/h 75 % 0 mm
01:57 -7.1 °C -9.6 °C 34293.4 hPa WSW 2.6 km/h 10.3 km/h 75 % 0 mm
02:02 -7.2 °C -9.7 °C 34293.4 hPa WSW 2.6 km/h 10.3 km/h 75 % 0 mm
02:07 -7.2 °C -9.6 °C 34293.4 hPa Calm   5.1 km/h 76 % 0 mm
02:12 -7.2 °C -9.6 °C 34293.4 hPa WSW 2.6 km/h 2.6 km/h 76 % 0 mm
02:17 -7.2 °C -9.4 °C 34293.4 hPa SW 5.1 km/h 5.1 km/h 77 % 0 mm
02:22 -7.2 °C -9.3 °C 34293.4 hPa Calm   12.9 km/h 78 % 0 mm
02:32 -7.2 °C -9.2 °C 34293.4 hPa SW 7.7 km/h 12.9 km/h 79 % 0 mm
02:37 -7.2 °C -9.2 °C 34293.4 hPa SW 12.9 km/h 12.9 km/h 80 % 0 mm
02:42 -7.3 °C -9.2 °C 34293.4 hPa WSW 5.1 km/h 18.2 km/h 80 % 0 mm
02:52 -7.4 °C -9.2 °C 34293.4 hPa WSW 5.1 km/h 18.2 km/h 81 % 0 mm
03:07 -7.6 °C -9.3 °C 34293.4 hPa West 5.1 km/h 10.3 km/h 82 % 0 mm
03:12 -7.6 °C -9.3 °C 34293.4 hPa WSW 2.6 km/h 10.3 km/h 82 % 0 mm
03:17 -7.7 °C -9.3 °C 34293.4 hPa Calm   10.3 km/h 83 % 0 mm
03:22 -7.7 °C -9.3 °C 34293.4 hPa WSW 5.1 km/h 10.3 km/h 83 % 0 mm
03:27 -7.7 °C -9.3 °C 34293.4 hPa WSW 2.6 km/h 10.3 km/h 83 % 0 mm
03:32 -7.7 °C -9.2 °C 34293.4 hPa WSW 5.1 km/h 10.3 km/h 84 % 0 mm
03:37 -7.7 °C -9.2 °C 34293.4 hPa West 2.6 km/h 12.9 km/h 85 % 0 mm
03:42 -7.7 °C -9.2 °C 34293.4 hPa West 5.1 km/h 15.6 km/h 85 % 0 mm
03:47 -7.7 °C -9.2 °C 34303.6 hPa West 7.7 km/h 18.2 km/h 85 % 0 mm
03:52 -7.7 °C -9.1 °C 34303.6 hPa West 2.6 km/h 18.2 km/h 86 % 0 mm
03:57 -7.7 °C -9.1 °C 34303.6 hPa West 2.6 km/h 18.2 km/h 86 % 0 mm
04:02 -7.7 °C -9 °C 34313.7 hPa WSW 15.6 km/h 18.2 km/h 86 % 0 mm
04:17 -7.6 °C -9 °C 34303.6 hPa SW 10.3 km/h 18.2 km/h 85 % 0 mm
04:22 -7.6 °C -9 °C 34303.6 hPa West 12.9 km/h 20.8 km/h 85 % 0 mm
04:27 -7.6 °C -9.1 °C 34303.6 hPa WSW 2.6 km/h 20.8 km/h 85 % 0 mm
04:32 -7.6 °C -9.1 °C 34303.6 hPa WNW 10.3 km/h 20.8 km/h 85 % 0 mm
04:37 -7.7 °C -9 °C 34303.6 hPa West 5.1 km/h 23.3 km/h 86 % 0 mm
04:42 -7.7 °C -9.1 °C 34303.6 hPa WSW 5.1 km/h 18.2 km/h 86 % 0 mm
04:47 -7.8 °C -9.2 °C 34303.6 hPa WNW 5.1 km/h 15.6 km/h 86 % 0 mm
04:52 -7.9 °C -9.4 °C 34303.6 hPa NW 5.1 km/h 15.6 km/h 85 % 0 mm
05:02 -8.2 °C -10.2 °C 34303.6 hPa West 7.7 km/h 20.8 km/h 80 % 0 mm
05:12 -8.4 °C -10.4 °C 34303.6 hPa West 2.6 km/h 28.5 km/h 80 % 7.62 mm
05:17 -8.6 °C -10.4 °C 34303.6 hPa WSW 2.6 km/h 28.5 km/h 81 % 7.62 mm
05:22 -8.6 °C -10.3 °C 34293.4 hPa Calm   28.5 km/h 82 % 7.62 mm
05:32 -8.7 °C -10.2 °C 34293.4 hPa WNW 2.6 km/h 10.3 km/h 84 % 7.62 mm
05:42 -8.8 °C -10.1 °C 34293.4 hPa Calm   7.7 km/h 86 % 7.62 mm
05:52 -9 °C -10.2 °C 34293.4 hPa Calm   2.6 km/h 87 % 7.62 mm
05:57 -9 °C -10.1 °C 34293.4 hPa Calm   2.6 km/h 88 % 7.62 mm
06:02 -9.1 °C -10.2 °C 34303.6 hPa WSW 2.6 km/h 2.6 km/h 88 % 7.62 mm
06:12 -9.1 °C -10 °C 34313.7 hPa WSW 2.6 km/h 5.1 km/h 90 % 0 mm
06:17 -9.1 °C -9.9 °C 34327.3 hPa WSW 2.6 km/h 5.1 km/h 91 % 0 mm
06:22 -9 °C -9.8 °C 34327.3 hPa WSW 15.6 km/h 15.6 km/h 91 % 0 mm
06:32 -8.8 °C -9.6 °C 34313.7 hPa SW 2.6 km/h 15.6 km/h 91 % 0 mm
06:42 -8.7 °C -9.6 °C 34313.7 hPa SSW 2.6 km/h 15.6 km/h 91 % 0 mm
06:47 -8.7 °C -9.5 °C 34327.3 hPa SSW 7.7 km/h 7.7 km/h 91 % 7.62 mm
06:52 -8.8 °C -9.6 °C 34327.3 hPa SW 5.1 km/h 7.7 km/h 91 % 7.62 mm
07:02 -8.9 °C -9.8 °C 34327.3 hPa SW 5.1 km/h 10.3 km/h 91 % 7.62 mm
07:12 -9 °C -9.7 °C 34327.3 hPa Calm   10.3 km/h 92 % 7.62 mm
07:17 -9 °C -9.7 °C 34327.3 hPa SSW 5.1 km/h 10.3 km/h 92 % 7.62 mm
07:22 -9 °C -9.7 °C 34327.3 hPa SSW 2.6 km/h 10.3 km/h 92 % 7.62 mm
07:32 -9 °C -9.6 °C 34327.3 hPa SSW 2.6 km/h 5.1 km/h 93 % 12.7 mm
07:42 -8.9 °C -9.5 °C 34327.3 hPa SW 10.3 km/h 10.3 km/h 94 % 7.62 mm
07:52 -8.8 °C -9.3 °C 34337.4 hPa WSW 10.3 km/h 10.3 km/h 94 % 7.62 mm
08:02 -8.7 °C -9.3 °C 34347.6 hPa SSW 7.7 km/h 12.9 km/h 94 % 7.62 mm
08:12 -8.8 °C -9.3 °C 34347.6 hPa SSW 5.1 km/h 23.3 km/h 94 % 12.7 mm
08:22 -8.8 °C -9.3 °C 34347.6 hPa SSW 5.1 km/h 20.8 km/h 94 % 20.32 mm
08:32 -9.3 °C -10.7 °C 34347.6 hPa SSW 15.6 km/h 15.6 km/h 85 % 25.4 mm
08:42 -9.4 °C -10.8 °C 34347.6 hPa SSW 7.7 km/h 25.9 km/h 85 % 33.02 mm
08:52 -9.6 °C -10.8 °C 34361.1 hPa SSW 7.7 km/h 20.8 km/h 86 % 33.02 mm
09:02 -9.6 °C -10.7 °C 34361.1 hPa SW 7.7 km/h 15.6 km/h 88 % 33.02 mm
09:12 -9.6 °C -10.6 °C 34361.1 hPa SW 10.3 km/h 12.9 km/h 89 % 20.32 mm
09:17 -9.6 °C -10.6 °C 34371.3 hPa SW 7.7 km/h 12.9 km/h 89 % 20.32 mm
09:22 -9.6 °C -10.4 °C 34371.3 hPa SSW 7.7 km/h 12.9 km/h 90 % 20.32 mm
09:32 -9.6 °C -10.4 °C 34371.3 hPa SSW 5.1 km/h 12.9 km/h 90 % 20.32 mm
09:42 -9.4 °C -10.3 °C 34371.3 hPa South 5.1 km/h 15.6 km/h 90 % 25.4 mm
09:52 -9.3 °C -10.1 °C 34371.3 hPa SW 12.9 km/h 15.6 km/h 91 % 25.4 mm
10:02 -9.2 °C -10.1 °C 34384.8 hPa SW 7.7 km/h 15.6 km/h 91 % 25.4 mm
10:12 -9.2 °C -10.1 °C 34384.8 hPa SW 18.2 km/h 25.9 km/h 90 % 25.4 mm
10:22 -9.2 °C -10.2 °C 34384.8 hPa SW 18.2 km/h 28.5 km/h 89 % 12.7 mm
10:32 -9.1 °C -9.9 °C 34384.8 hPa SW 7.7 km/h 28.5 km/h 90 % 7.62 mm
10:42 -8.9 °C -10.1 °C 34384.8 hPa SW 18.2 km/h 23.3 km/h 88 % 0 mm
10:52 -8.7 °C -10.2 °C 34384.8 hPa SW 31.1 km/h 36.2 km/h 84 % 0 mm
10:57 -8.6 °C -10.2 °C 34384.8 hPa South 12.9 km/h 36.2 km/h 83 % 0 mm
11:02 -8.5 °C -10 °C 34395 hPa SSW 25.9 km/h 36.2 km/h 84 % 0 mm
11:12 -8.3 °C -9.9 °C 34395 hPa SW 15.6 km/h 38.8 km/h 83 % 0 mm
11:17 -8.2 °C -9.8 °C 34395 hPa SSW 7.7 km/h 38.8 km/h 83 % 0 mm
11:22 -8.1 °C -9.8 °C 34395 hPa SSW 20.8 km/h 33.6 km/h 82 % 0 mm
11:32 -7.9 °C -9.7 °C 34384.8 hPa SSW 23.3 km/h 36.2 km/h 82 % 0 mm
11:37 -7.9 °C -9.6 °C 34384.8 hPa SSW 10.3 km/h 36.2 km/h 82 % 0 mm
11:42 -7.9 °C -9.7 °C 34384.8 hPa WSW 12.9 km/h 31.1 km/h 81 % 0 mm
11:47 -7.7 °C -9.7 °C 34395 hPa SW 20.8 km/h 41.4 km/h 80 % 0 mm
11:52 -7.7 °C -9.6 °C 34384.8 hPa SSW 10.3 km/h 41.4 km/h 80 % 0 mm
11:57 -7.6 °C -9.5 °C 34384.8 hPa SSW 10.3 km/h 31.1 km/h 80 % 0 mm
12:02 -7.4 °C -9.4 °C 34384.8 hPa South 10.3 km/h 31.1 km/h 80 % 0 mm
12:07 -7.3 °C -9.3 °C 34384.8 hPa SW 28.5 km/h 33.6 km/h 80 % 0 mm
12:12 -7.3 °C -9.3 °C 34395 hPa WSW 33.6 km/h 41.4 km/h 80 % 0 mm
12:17 -7.2 °C -9.5 °C 34395 hPa SSW 23.3 km/h 41.4 km/h 77 % 0 mm
12:22 -7.2 °C -9.4 °C 34395 hPa SW 10.3 km/h 41.4 km/h 78 % 0 mm
12:32 -7.1 °C -9.3 °C 34395 hPa South 12.9 km/h 41.4 km/h 77 % 0 mm
12:37 -6.9 °C -9.6 °C 34395 hPa SW 23.3 km/h 41.4 km/h 74 % 0 mm
12:47 -6.7 °C -9.5 °C 34395 hPa SSW 20.8 km/h 36.2 km/h 73 % 0 mm
12:52 -6.6 °C -9.6 °C 34395 hPa South 15.6 km/h 31.1 km/h 71 % 0 mm
12:57 -6.6 °C -9.7 °C 34384.8 hPa SW 23.3 km/h 46.7 km/h 70 % 0 mm
13:02 -6.6 °C -9.4 °C 34384.8 hPa SSW 25.9 km/h 46.7 km/h 73 % 0 mm
13:12 -6.4 °C -9.7 °C 34395 hPa SSW 15.6 km/h 38.8 km/h 69 % 0 mm
13:22 -6.5 °C -9.7 °C 34384.8 hPa WSW 18.2 km/h 44.1 km/h 70 % 0 mm
13:32 -6.5 °C -9.9 °C 34384.8 hPa SW 25.9 km/h 36.2 km/h 68 % 0 mm
13:42 -6.4 °C -10.1 °C 34384.8 hPa SW 15.6 km/h 33.6 km/h 66 % 0 mm
13:52 -6.1 °C -9.7 °C 34384.8 hPa SSW 23.3 km/h 36.2 km/h 66 % 0 mm
13:57 -6.2 °C -10.1 °C 34384.8 hPa SSW 18.2 km/h 36.2 km/h 64 % 0 mm
14:07 -6.3 °C -10.1 °C 34384.8 hPa SW 20.8 km/h 38.8 km/h 65 % 0 mm
14:12 -6.3 °C -10.1 °C 34384.8 hPa SW 15.6 km/h 38.8 km/h 65 % 0 mm
14:17 -6.3 °C -9.8 °C 34384.8 hPa SW 25.9 km/h 38.8 km/h 67 % 0 mm
14:22 -6.2 °C -9.8 °C 34384.8 hPa SSW 15.6 km/h 38.8 km/h 67 % 0 mm
14:37 -6.2 °C -9.8 °C 34384.8 hPa South 7.7 km/h 33.6 km/h 66 % 0 mm
14:42 -6.2 °C -10.2 °C 34384.8 hPa SSW 31.1 km/h 31.1 km/h 64 % 0 mm
14:47 -6.3 °C -10.1 °C 34384.8 hPa WSW 15.6 km/h 36.2 km/h 65 % 0 mm
14:52 -6.3 °C -9.9 °C 34384.8 hPa SSW 12.9 km/h 36.2 km/h 66 % 0 mm
14:57 -6.2 °C -9.9 °C 34384.8 hPa WNW 31.1 km/h 41.4 km/h 66 % 0 mm
15:02 -6.8 °C -9.6 °C 34395 hPa West 12.9 km/h 41.4 km/h 73 % 0 mm
15:07 -7.1 °C -9.6 °C 34384.8 hPa West 5.1 km/h 41.4 km/h 75 % 0 mm
15:12 -7.1 °C -9.4 °C 34395 hPa SW 5.1 km/h 41.4 km/h 76 % 0 mm
15:17 -6.8 °C -9.5 °C 34384.8 hPa SW 7.7 km/h 31.1 km/h 74 % 0 mm
15:22 -6.5 °C -9.5 °C 34384.8 hPa SW 15.6 km/h 31.1 km/h 71 % 0 mm
15:32 -5.9 °C -9.7 °C 34384.8 hPa SW 20.8 km/h 25.9 km/h 65 % 0 mm
15:42 -5.5 °C -10.4 °C 34384.8 hPa SW 10.3 km/h 36.2 km/h 57 % 0 mm
15:47 -5.4 °C -10.3 °C 34384.8 hPa West 15.6 km/h 36.2 km/h 57 % 0 mm
15:52 -5.3 °C -10.3 °C 34371.3 hPa SW 18.2 km/h 33.6 km/h 57 % 0 mm
15:57 -5.3 °C -10.3 °C 34384.8 hPa SW 15.6 km/h 46.7 km/h 57 % 0 mm
16:02 -5.2 °C -9.9 °C 34371.3 hPa SSW 12.9 km/h 46.7 km/h 59 % 0 mm
16:12 -5.1 °C -10.5 °C 34384.8 hPa SW 12.9 km/h 41.4 km/h 54 % 0 mm
16:17 -4.9 °C -10.7 °C 34384.8 hPa SW 33.6 km/h 41.4 km/h 52 % 0 mm
16:22 -4.8 °C -10.8 °C 34371.3 hPa West 12.9 km/h 41.4 km/h 51 % 0 mm
16:27 -4.8 °C -10.6 °C 34371.3 hPa WSW 12.9 km/h 46.7 km/h 52 % 0 mm
16:32 -4.6 °C -10.6 °C 34371.3 hPa SW 10.3 km/h 46.7 km/h 51 % 0 mm
16:42 -4.8 °C -11.8 °C 34371.3 hPa WSW 44.1 km/h 44.1 km/h 45 % 0 mm
16:47 -4.8 °C -12 °C 34371.3 hPa WSW 31.1 km/h 44.1 km/h 44 % 0 mm
16:52 -4.8 °C -12 °C 34371.3 hPa West 15.6 km/h 44.1 km/h 44 % 0 mm
17:02 -4.6 °C -11.6 °C 34371.3 hPa WSW 15.6 km/h 44.1 km/h 45 % 0 mm
17:12 -4.8 °C -11.8 °C 34371.3 hPa SW 20.8 km/h 36.2 km/h 45 % 0 mm
17:17 -4.9 °C -11.7 °C 34371.3 hPa West 20.8 km/h 36.2 km/h 46 % 0 mm
17:22 -5.1 °C -11.7 °C 34384.8 hPa WSW 18.2 km/h 36.2 km/h 47 % 0 mm
17:32 -4.9 °C -11.6 °C 34384.8 hPa WSW 10.3 km/h 38.8 km/h 47 % 0 mm
17:42 -4.7 °C -11.2 °C 34384.8 hPa WNW 12.9 km/h 31.1 km/h 48 % 0 mm
17:47 -4.6 °C -11.4 °C 34384.8 hPa WNW 23.3 km/h 31.1 km/h 46 % 0 mm
17:52 -4.5 °C -11.3 °C 34371.3 hPa West 15.6 km/h 31.1 km/h 46 % 0 mm
17:57 -4.6 °C -11.6 °C 34384.8 hPa SW 23.3 km/h 36.2 km/h 45 % 0 mm
18:02 -4.5 °C -11.6 °C 34384.8 hPa SW 15.6 km/h 36.2 km/h 45 % 0 mm
18:12 -4.6 °C -11.6 °C 34384.8 hPa SW 15.6 km/h 36.2 km/h 45 % 0 mm
18:17 -4.6 °C -11.8 °C 34384.8 hPa SW 15.6 km/h 41.4 km/h 44 % 0 mm
18:22 -4.4 °C -11.7 °C 34384.8 hPa South 12.9 km/h 41.4 km/h 44 % 0 mm
18:32 -4.4 °C -11.6 °C 34384.8 hPa WSW 28.5 km/h 49.2 km/h 44 % 0 mm
18:37 -4.6 °C -11.8 °C 34384.8 hPa WSW 18.2 km/h 49.2 km/h 44 % 0 mm
18:42 -4.6 °C -11.8 °C 34384.8 hPa WSW 12.9 km/h 49.2 km/h 44 % 0 mm
18:47 -4.5 °C -11.7 °C 34384.8 hPa WSW 31.1 km/h 46.7 km/h 44 % 0 mm
18:52 -4.5 °C -11.7 °C 34384.8 hPa SW 31.1 km/h 44.1 km/h 44 % 0 mm
19:02 -4.8 °C -11.9 °C 34395 hPa South 33.6 km/h 54.4 km/h 44 % 0 mm
19:12 -5.1 °C -11.8 °C 34395 hPa WSW 18.2 km/h 54.4 km/h 46 % 0 mm
19:17 -4.9 °C -11.8 °C 34395 hPa WSW 10.3 km/h 51.8 km/h 46 % 0 mm
19:22 -4.9 °C -11.7 °C 34395 hPa SW 18.2 km/h 46.7 km/h 46 % 0 mm
19:32 -4.8 °C -11.7 °C 34405.1 hPa WSW 20.8 km/h 46.7 km/h 46 % 0 mm
19:42 -4.9 °C -11.9 °C 34405.1 hPa WNW 38.8 km/h 38.8 km/h 45 % 0 mm
19:47 -5.1 °C -11.8 °C 34405.1 hPa West 23.3 km/h 41.4 km/h 46 % 0 mm
19:52 -5.1 °C -11.9 °C 34405.1 hPa WSW 18.2 km/h 41.4 km/h 46 % 0 mm
19:57 -5.2 °C -11.8 °C 34405.1 hPa SW 15.6 km/h 41.4 km/h 47 % 0 mm
20:02 -5.2 °C -11.7 °C 34405.1 hPa WSW 12.9 km/h 41.4 km/h 48 % 0 mm
20:07 -5.3 °C -11.6 °C 34405.1 hPa WNW 15.6 km/h 41.4 km/h 49 % 0 mm
20:12 -5.4 °C -11.5 °C 34405.1 hPa West 12.9 km/h 41.4 km/h 50 % 0 mm
20:17 -5.6 °C -11.4 °C 34418.7 hPa West 7.7 km/h 33.6 km/h 51 % 0 mm
20:22 -5.6 °C -11.5 °C 34418.7 hPa WSW 12.9 km/h 33.6 km/h 51 % 0 mm
20:27 -5.7 °C -11.4 °C 34418.7 hPa WSW 5.1 km/h 25.9 km/h 52 % 0 mm
20:32 -5.8 °C -11.4 °C 34418.7 hPa West 5.1 km/h 25.9 km/h 53 % 0 mm
20:42 -6.1 °C -11.4 °C 34428.8 hPa West 18.2 km/h 20.8 km/h 54 % 0 mm
20:47 -6.1 °C -11.5 °C 34428.8 hPa WSW 10.3 km/h 28.5 km/h 54 % 0 mm
20:52 -6.2 °C -11.7 °C 34428.8 hPa WSW 10.3 km/h 31.1 km/h 53 % 0 mm
21:02 -6.3 °C -11.7 °C 34428.8 hPa WSW 10.3 km/h 31.1 km/h 54 % 0 mm
21:12 -6.5 °C -12 °C 34428.8 hPa SW 10.3 km/h 25.9 km/h 53 % 0 mm
21:17 -6.6 °C -12.1 °C 34442.4 hPa West 7.7 km/h 23.3 km/h 53 % 0 mm
21:22 -6.6 °C -11.9 °C 34442.4 hPa West 7.7 km/h 23.3 km/h 54 % 0 mm
21:27 -6.7 °C -12.1 °C 34442.4 hPa WSW 10.3 km/h 25.9 km/h 54 % 0 mm
21:32 -6.8 °C -11.9 °C 34442.4 hPa SW 7.7 km/h 25.9 km/h 55 % 0 mm
21:42 -6.8 °C -12 °C 34452.6 hPa South 5.1 km/h 23.3 km/h 55 % 0 mm
21:47 -6.8 °C -12 °C 34452.6 hPa WSW 15.6 km/h 23.3 km/h 55 % 0 mm
21:52 -6.9 °C -12.1 °C 34452.6 hPa SW 12.9 km/h 23.3 km/h 55 % 0 mm
22:02 -7 °C -12 °C 34462.7 hPa WSW 18.2 km/h 25.9 km/h 56 % 0 mm
22:12 -7.2 °C -12.2 °C 34462.7 hPa West 18.2 km/h 25.9 km/h 56 % 0 mm
22:17 -7.3 °C -12.1 °C 34476.3 hPa West 5.1 km/h 25.9 km/h 57 % 0 mm
22:22 -7.3 °C -12.2 °C 34476.3 hPa WSW 10.3 km/h 25.9 km/h 57 % 0 mm
22:32 -7.5 °C -12.2 °C 34476.3 hPa West 10.3 km/h 25.9 km/h 58 % 0 mm
22:37 -7.6 °C -12.2 °C 34476.3 hPa WSW 18.2 km/h 20.8 km/h 58 % 0 mm
22:42 -7.5 °C -12.2 °C 34486.4 hPa WSW 10.3 km/h 25.9 km/h 58 % 0 mm
22:52 -7.6 °C -12.1 °C 34486.4 hPa SW 7.7 km/h 25.9 km/h 59 % 0 mm
22:57 -7.6 °C -12.2 °C 34486.4 hPa SW 10.3 km/h 23.3 km/h 59 % 0 mm
23:02 -7.6 °C -12.2 °C 34486.4 hPa West 10.3 km/h 23.3 km/h 59 % 0 mm
23:07 -7.6 °C -12.2 °C 34486.4 hPa SW 10.3 km/h 25.9 km/h 59 % 0 mm
23:12 -7.7 °C -12.1 °C 34496.6 hPa SW 10.3 km/h 25.9 km/h 60 % 0 mm
23:17 -7.7 °C -12.1 °C 34496.6 hPa WSW 7.7 km/h 28.5 km/h 60 % 0 mm
23:22 -7.8 °C -12.2 °C 34496.6 hPa WSW 12.9 km/h 28.5 km/h 60 % 0 mm
23:32 -7.8 °C -12.2 °C 34496.6 hPa SW 15.6 km/h 28.5 km/h 60 % 0 mm
23:37 -7.9 °C -12.3 °C 34496.6 hPa WSW 12.9 km/h 28.5 km/h 60 % 0 mm
23:42 -7.9 °C -12.3 °C 34496.6 hPa West 5.1 km/h 25.9 km/h 60 % 0 mm
23:47 -7.9 °C -12.2 °C 34496.6 hPa SSW 5.1 km/h 25.9 km/h 61 % 0 mm
23:52 -8 °C -12.2 °C 34496.6 hPa West 7.7 km/h 25.9 km/h 61 % 0 mm
Meteo18
Compliments of Weather Underground - 4 mb

Script developed by  Jim McMurry - jmcmurry@mwt.net Adapted for the template by  Wim van der Kuil - Leuven-Template.eu

You find our weather info also at:

European Weather Network

Weather Underground

Equipment we use:

Weather-station
Davis Vue

Weather-program
Meteobridge

Weather-server
Raspberry PI 2 B+

Provider
1 and 1

Davis Vue

Meteobridge

Raspberry PI 2 B+

1 and 1